sensor_id;sensor_type;location;lat;lon;timestamp;pressure;altitude;pressure_sealevel;temperature;humidity
11888;BME280;6003;42.756;23.130;2023-04-23T00:01:07;154088.75;;;6.52;100.00
11888;BME280;6003;42.756;23.130;2023-04-23T00:03:36;154082.16;;;6.50;100.00
11888;BME280;6003;42.756;23.130;2023-04-23T00:06:06;154079.53;;;6.49;100.00
11888;BME280;6003;42.756;23.130;2023-04-23T00:08:38;154055.84;;;6.40;100.00
11888;BME280;6003;42.756;23.130;2023-04-23T00:11:06;154053.19;;;6.39;100.00
11888;BME280;6003;42.756;23.130;2023-04-23T00:13:33;154033.44;;;6.31;100.00
11888;BME280;6003;42.756;23.130;2023-04-23T00:16:01;154047.94;;;6.37;100.00
11888;BME280;6003;42.756;23.130;2023-04-23T00:18:28;154057.16;;;6.40;100.00
11888;BME280;6003;42.756;23.130;2023-04-23T00:21:01;154037.38;;;6.32;100.00
11888;BME280;6003;42.756;23.130;2023-04-23T00:23:28;154018.97;;;6.25;100.00
11888;BME280;6003;42.756;23.130;2023-04-23T00:25:56;154005.78;;;6.20;100.00
11888;BME280;6003;42.756;23.130;2023-04-23T00:28:23;153999.19;;;6.18;100.00
11888;BME280;6003;42.756;23.130;2023-04-23T00:30:50;153979.47;;;6.10;100.00
11888;BME280;6003;42.756;23.130;2023-04-23T00:33:16;153951.78;;;5.99;100.00
11888;BME280;6003;42.756;23.130;2023-04-23T00:35:43;153961.00;;;6.03;100.00
11888;BME280;6003;42.756;23.130;2023-04-23T00:38:10;153953.09;;;6.00;100.00
11888;BME280;6003;42.756;23.130;2023-04-23T00:40:37;153926.69;;;5.89;100.00
11888;BME280;6003;42.756;23.130;2023-04-23T00:43:05;153942.59;;;5.96;100.00
11888;BME280;6003;42.756;23.130;2023-04-23T00:45:34;153947.81;;;5.98;100.00
11888;BME280;6003;42.756;23.130;2023-04-23T00:48:01;153929.34;;;5.91;100.00
11888;BME280;6003;42.756;23.130;2023-04-23T00:50:28;153916.19;;;5.85;100.00
11888;BME280;6003;42.756;23.130;2023-04-23T00:52:55;153905.66;;;5.81;100.00
11888;BME280;6003;42.756;23.130;2023-04-23T00:55:22;153908.28;;;5.82;100.00
11888;BME280;6003;42.756;23.130;2023-04-23T00:57:49;153903.00;;;5.80;100.00
11888;BME280;6003;42.756;23.130;2023-04-23T01:00:18;153903.00;;;5.80;100.00
11888;BME280;6003;42.756;23.130;2023-04-23T01:02:46;153905.66;;;5.81;100.00
11888;BME280;6003;42.756;23.130;2023-04-23T01:05:15;153903.00;;;5.80;100.00
11888;BME280;6003;42.756;23.130;2023-04-23T01:07:43;153895.09;;;5.77;100.00
11888;BME280;6003;42.756;23.130;2023-04-23T01:10:11;153889.81;;;5.75;100.00
11888;BME280;6003;42.756;23.130;2023-04-23T01:12:37;153874.03;;;5.69;100.00
11888;BME280;6003;42.756;23.130;2023-04-23T01:15:05;153858.25;;;5.63;100.00
11888;BME280;6003;42.756;23.130;2023-04-23T01:17:34;153866.13;;;5.66;100.00
11888;BME280;6003;42.756;23.130;2023-04-23T01:20:01;153868.81;;;5.67;100.00
11888;BME280;6003;42.756;23.130;2023-04-23T01:22:33;153875.34;;;5.70;100.00
11888;BME280;6003;42.756;23.130;2023-04-23T01:24:59;153874.03;;;5.69;100.00
11888;BME280;6003;42.756;23.130;2023-04-23T01:27:27;153842.44;;;5.57;100.00
11888;BME280;6003;42.756;23.130;2023-04-23T01:29:54;153842.44;;;5.57;100.00
11888;BME280;6003;42.756;23.130;2023-04-23T01:32:21;153821.38;;;5.49;100.00
11888;BME280;6003;42.756;23.130;2023-04-23T01:34:50;153801.66;;;5.41;100.00
11888;BME280;6003;42.756;23.130;2023-04-23T01:37:18;153785.81;;;5.35;100.00
11888;BME280;6003;42.756;23.130;2023-04-23T01:39:47;153763.47;;;5.26;100.00
11888;BME280;6003;42.756;23.130;2023-04-23T01:42:13;153766.13;;;5.27;100.00
11888;BME280;6003;42.756;23.130;2023-04-23T01:44:41;153763.47;;;5.26;100.00
11888;BME280;6003;42.756;23.130;2023-04-23T01:47:08;153777.94;;;5.32;100.00
11888;BME280;6003;42.756;23.130;2023-04-23T01:49:35;153775.31;;;5.31;100.00
11888;BME280;6003;42.756;23.130;2023-04-23T01:52:02;153774.00;;;5.30;100.00
11888;BME280;6003;42.756;23.130;2023-04-23T01:54:29;153784.53;;;5.34;100.00
11888;BME280;6003;42.756;23.130;2023-04-23T01:56:57;153797.69;;;5.39;100.00
11888;BME280;6003;42.756;23.130;2023-04-23T01:59:24;153793.72;;;5.38;100.00
11888;BME280;6003;42.756;23.130;2023-04-23T02:01:51;153788.50;;;5.36;100.00
11888;BME280;6003;42.756;23.130;2023-04-23T02:04:18;153768.72;;;5.28;100.00
11888;BME280;6003;42.756;23.130;2023-04-23T02:06:47;153752.94;;;5.22;100.00
11888;BME280;6003;42.756;23.130;2023-04-23T02:09:14;153737.16;;;5.16;100.00
11888;BME280;6003;42.756;23.130;2023-04-23T02:11:41;153731.88;;;5.14;100.00
11888;BME280;6003;42.756;23.130;2023-04-23T02:14:09;153729.28;;;5.13;100.00
11888;BME280;6003;42.756;23.130;2023-04-23T02:16:36;153724.00;;;5.11;100.00
11888;BME280;6003;42.756;23.130;2023-04-23T02:19:04;153708.22;;;5.05;100.00
11888;BME280;6003;42.756;23.130;2023-04-23T02:21:31;153729.28;;;5.13;100.00
11888;BME280;6003;42.756;23.130;2023-04-23T02:23:57;153745.06;;;5.19;100.00
11888;BME280;6003;42.756;23.130;2023-04-23T02:26:24;153745.06;;;5.19;100.00
11888;BME280;6003;42.756;23.130;2023-04-23T02:28:53;153726.59;;;5.12;100.00
11888;BME280;6003;42.756;23.130;2023-04-23T02:31:21;153713.47;;;5.07;100.00
11888;BME280;6003;42.756;23.130;2023-04-23T02:33:48;153712.13;;;5.06;100.00
11888;BME280;6003;42.756;23.130;2023-04-23T02:36:15;153726.59;;;5.12;100.00
11888;BME280;6003;42.756;23.130;2023-04-23T02:38:42;153731.88;;;5.14;100.00
11888;BME280;6003;42.756;23.130;2023-04-23T02:41:10;153721.38;;;5.10;100.00
11888;BME280;6003;42.756;23.130;2023-04-23T02:43:37;153721.38;;;5.10;100.00
11888;BME280;6003;42.756;23.130;2023-04-23T02:46:04;153710.81;;;5.06;100.00
11888;BME280;6003;42.756;23.130;2023-04-23T02:48:37;153708.22;;;5.05;100.00
11888;BME280;6003;42.756;23.130;2023-04-23T02:51:05;153716.09;;;5.08;100.00
11888;BME280;6003;42.756;23.130;2023-04-23T02:53:32;153710.81;;;5.06;100.00
11888;BME280;6003;42.756;23.130;2023-04-23T02:55:59;153718.72;;;5.09;100.00
11888;BME280;6003;42.756;23.130;2023-04-23T02:58:28;153724.00;;;5.11;100.00
11888;BME280;6003;42.756;23.130;2023-04-23T03:00:56;153713.47;;;5.07;100.00
11888;BME280;6003;42.756;23.130;2023-04-23T03:03:23;153718.72;;;5.09;100.00
11888;BME280;6003;42.756;23.130;2023-04-23T03:05:52;153721.38;;;5.10;100.00
11888;BME280;6003;42.756;23.130;2023-04-23T03:08:20;153724.00;;;5.11;100.00
11888;BME280;6003;42.756;23.130;2023-04-23T03:10:47;153717.41;;;5.08;100.00
11888;BME280;6003;42.756;23.130;2023-04-23T03:13:14;153722.69;;;5.10;100.00
11888;BME280;6003;42.756;23.130;2023-04-23T03:15:40;153713.47;;;5.07;100.00
11888;BME280;6003;42.756;23.130;2023-04-23T03:18:07;153708.22;;;5.05;100.00
11888;BME280;6003;42.756;23.130;2023-04-23T03:20:48;153710.81;;;5.06;100.00
11888;BME280;6003;42.756;23.130;2023-04-23T03:23:16;153713.47;;;5.07;100.00
11888;BME280;6003;42.756;23.130;2023-04-23T03:25:43;153705.59;;;5.04;100.00
11888;BME280;6003;42.756;23.130;2023-04-23T03:28:09;153696.34;;;5.00;100.00
11888;BME280;6003;42.756;23.130;2023-04-23T03:30:36;153679.25;;;4.93;100.00
11888;BME280;6003;42.756;23.130;2023-04-23T03:33:03;153684.53;;;4.95;100.00
11888;BME280;6003;42.756;23.130;2023-04-23T03:35:30;153681.88;;;4.94;100.00
11888;BME280;6003;42.756;23.130;2023-04-23T03:37:57;153677.94;;;4.93;100.00
11888;BME280;6003;42.756;23.130;2023-04-23T03:40:25;153667.41;;;4.89;100.00
11888;BME280;6003;42.756;23.130;2023-04-23T03:42:52;153671.38;;;4.90;100.00
11888;BME280;6003;42.756;23.130;2023-04-23T03:45:18;153683.22;;;4.95;100.00
11888;BME280;6003;42.756;23.130;2023-04-23T03:47:45;153693.72;;;4.99;100.00
11888;BME280;6003;42.756;23.130;2023-04-23T03:50:12;153705.59;;;5.04;100.00
11888;BME280;6003;42.756;23.130;2023-04-23T03:52:39;153727.97;;;5.12;100.00
11888;BME280;6003;42.756;23.130;2023-04-23T03:55:07;153779.28;;;5.32;100.00
11888;BME280;6003;42.756;23.130;2023-04-23T03:57:35;153845.06;;;5.58;100.00
11888;BME280;6003;42.756;23.130;2023-04-23T04:00:03;153910.91;;;5.83;100.00
11888;BME280;6003;42.756;23.130;2023-04-23T04:02:32;153957.06;;;6.01;100.00
11888;BME280;6003;42.756;23.130;2023-04-23T04:04:59;154016.34;;;6.24;100.00
11888;BME280;6003;42.756;23.130;2023-04-23T04:07:26;154087.44;;;6.52;100.00
11888;BME280;6003;42.756;23.130;2023-04-23T04:09:53;154150.72;;;6.76;100.00
11888;BME280;6003;42.756;23.130;2023-04-23T04:12:19;154188.94;;;6.91;100.00
11888;BME280;6003;42.756;23.130;2023-04-23T04:14:48;154257.44;;;7.18;100.00
11888;BME280;6003;42.756;23.130;2023-04-23T04:17:14;154322.06;;;7.43;100.00
11888;BME280;6003;42.756;23.130;2023-04-23T04:19:41;154414.34;;;7.79;100.00
11888;BME280;6003;42.756;23.130;2023-04-23T04:22:08;154514.63;;;8.18;100.00
11888;BME280;6003;42.756;23.130;2023-04-23T04:24:35;154609.63;;;8.54;100.00
11888;BME280;6003;42.756;23.130;2023-04-23T04:27:02;154770.69;;;9.17;100.00
11888;BME280;6003;42.756;23.130;2023-04-23T04:29:30;154937.13;;;9.81;100.00
11888;BME280;6003;42.756;23.130;2023-04-23T04:31:59;155118.19;;;10.51;97.64
11888;BME280;6003;42.756;23.130;2023-04-23T04:34:27;155331.06;;;11.34;93.93
11888;BME280;6003;42.756;23.130;2023-04-23T04:36:53;155493.78;;;11.96;89.09
11888;BME280;6003;42.756;23.130;2023-04-23T04:39:20;155612.91;;;12.42;85.42
11888;BME280;6003;42.756;23.130;2023-04-23T04:41:47;155746.63;;;12.94;83.80
11888;BME280;6003;42.756;23.130;2023-04-23T04:44:14;155810.22;;;13.19;81.74
11888;BME280;6003;42.756;23.130;2023-04-23T04:46:41;155831.47;;;13.27;81.45
11888;BME280;6003;42.756;23.130;2023-04-23T04:49:10;156016.97;;;13.98;78.63
11888;BME280;6003;42.756;23.130;2023-04-23T04:51:37;155827.47;;;13.25;77.61
11888;BME280;6003;42.756;23.130;2023-04-23T04:54:04;155362.81;;;11.46;82.41
11888;BME280;6003;42.756;23.130;2023-04-23T04:56:32;155417.03;;;11.67;83.86
11888;BME280;6003;42.756;23.130;2023-04-23T04:58:59;155463.31;;;11.85;84.19
11888;BME280;6003;42.756;23.130;2023-04-23T05:01:26;155481.91;;;11.92;83.61
11888;BME280;6003;42.756;23.130;2023-04-23T05:03:53;155582.47;;;12.31;81.30
11888;BME280;6003;42.756;23.130;2023-04-23T05:06:21;155282.13;;;11.15;83.76
11888;BME280;6003;42.756;23.130;2023-04-23T05:08:48;155312.53;;;11.26;86.39
11888;BME280;6003;42.756;23.130;2023-04-23T05:11:16;155607.66;;;12.40;82.89
11888;BME280;6003;42.756;23.130;2023-04-23T05:13:43;155762.50;;;13.00;78.27
11888;BME280;6003;42.756;23.130;2023-04-23T05:16:10;155246.41;;;11.01;83.74
11888;BME280;6003;42.756;23.130;2023-04-23T05:18:37;155262.25;;;11.07;85.76
11888;BME280;6003;42.756;23.130;2023-04-23T05:21:04;155361.50;;;11.45;83.25
11888;BME280;6003;42.756;23.130;2023-04-23T05:23:33;155423.63;;;11.69;82.70
11888;BME280;6003;42.756;23.130;2023-04-23T05:26:00;155377.34;;;11.51;82.51
11888;BME280;6003;42.756;23.130;2023-04-23T05:28:28;155344.25;;;11.39;83.56
11888;BME280;6003;42.756;23.130;2023-04-23T05:30:55;155292.69;;;11.19;84.74
11888;BME280;6003;42.756;23.130;2023-04-23T05:33:22;155216.00;;;10.89;84.86
11888;BME280;6003;42.756;23.130;2023-04-23T05:35:49;155141.97;;;10.60;86.16
11888;BME280;6003;42.756;23.130;2023-04-23T05:38:16;155148.56;;;10.63;86.35
11888;BME280;6003;42.756;23.130;2023-04-23T05:40:44;155159.13;;;10.67;86.73
11888;BME280;6003;42.756;23.130;2023-04-23T05:43:11;155198.81;;;10.82;87.29
11888;BME280;6003;42.756;23.130;2023-04-23T05:45:38;155227.91;;;10.94;87.55
11888;BME280;6003;42.756;23.130;2023-04-23T05:48:04;155303.28;;;11.23;84.47
11888;BME280;6003;42.756;23.130;2023-04-23T05:50:31;155557.34;;;12.21;82.87
11888;BME280;6003;42.756;23.130;2023-04-23T05:52:58;155604.97;;;12.39;81.94
11888;BME280;6003;42.756;23.130;2023-04-23T05:55:25;155649.97;;;12.57;80.90
11888;BME280;6003;42.756;23.130;2023-04-23T05:57:53;155462.00;;;11.84;81.60
11888;BME280;6003;42.756;23.130;2023-04-23T06:00:20;155574.53;;;12.28;80.96
11888;BME280;6003;42.756;23.130;2023-04-23T06:02:47;155875.19;;;13.44;76.98
11888;BME280;6003;42.756;23.130;2023-04-23T06:05:13;155925.50;;;13.63;76.15
11888;BME280;6003;42.756;23.130;2023-04-23T06:07:41;155868.56;;;13.41;77.06
11888;BME280;6003;42.756;23.130;2023-04-23T06:10:08;155987.81;;;13.87;76.47
11888;BME280;6003;42.756;23.130;2023-04-23T06:12:35;155982.50;;;13.85;76.26
11888;BME280;6003;42.756;23.130;2023-04-23T06:15:07;156170.75;;;14.58;73.60
11888;BME280;6003;42.756;23.130;2023-04-23T06:17:34;156083.19;;;14.24;73.66
11888;BME280;6003;42.756;23.130;2023-04-23T06:20:01;155949.38;;;13.72;76.31
11888;BME280;6003;42.756;23.130;2023-04-23T06:22:29;155908.28;;;13.57;74.29
11888;BME280;6003;42.756;23.130;2023-04-23T06:24:56;155832.78;;;13.27;78.35
11888;BME280;6003;42.756;23.130;2023-04-23T06:27:23;155720.16;;;12.84;77.06
11888;BME280;6003;42.756;23.130;2023-04-23T06:29:49;155546.78;;;12.17;80.17
11888;BME280;6003;42.756;23.130;2023-04-23T06:32:18;155736.06;;;12.90;78.18
11888;BME280;6003;42.756;23.130;2023-04-23T06:34:45;155765.19;;;13.01;77.29
11888;BME280;6003;42.756;23.130;2023-04-23T06:37:11;155668.53;;;12.64;80.26
11888;BME280;6003;42.756;23.130;2023-04-23T06:39:38;155818.16;;;13.22;78.93
11888;BME280;6003;42.756;23.130;2023-04-23T06:42:05;155831.47;;;13.27;77.78
11888;BME280;6003;42.756;23.130;2023-04-23T06:44:32;155770.50;;;13.03;77.68
11888;BME280;6003;42.756;23.130;2023-04-23T06:46:59;155706.91;;;12.79;77.71
11888;BME280;6003;42.756;23.130;2023-04-23T06:49:27;155850.00;;;13.34;79.02
11888;BME280;6003;42.756;23.130;2023-04-23T06:51:53;155834.09;;;13.28;81.51
11888;BME280;6003;42.756;23.130;2023-04-23T06:54:20;155940.06;;;13.69;79.63
11888;BME280;6003;42.756;23.130;2023-04-23T06:56:47;155910.91;;;13.58;79.05
11888;BME280;6003;42.756;23.130;2023-04-23T06:59:15;155953.34;;;13.74;76.17
11888;BME280;6003;42.756;23.130;2023-04-23T07:01:42;155932.13;;;13.66;76.86
11888;BME280;6003;42.756;23.130;2023-04-23T07:04:09;155959.97;;;13.76;79.43
11888;BME280;6003;42.756;23.130;2023-04-23T07:06:37;156027.53;;;14.03;75.96
11888;BME280;6003;42.756;23.130;2023-04-23T07:09:03;155949.38;;;13.72;77.29
11888;BME280;6003;42.756;23.130;2023-04-23T07:11:30;156038.13;;;14.07;76.27
11888;BME280;6003;42.756;23.130;2023-04-23T07:13:59;156024.91;;;14.02;77.14
11888;BME280;6003;42.756;23.130;2023-04-23T07:16:26;156080.56;;;14.23;77.68
11888;BME280;6003;42.756;23.130;2023-04-23T07:18:56;156132.25;;;14.43;75.73
11888;BME280;6003;42.756;23.130;2023-04-23T07:21:23;156120.31;;;14.38;73.79
11888;BME280;6003;42.756;23.130;2023-04-23T07:23:54;156069.97;;;14.19;75.22
11888;BME280;6003;42.756;23.130;2023-04-23T07:26:21;155887.09;;;13.48;77.18
11888;BME280;6003;42.756;23.130;2023-04-23T07:28:47;155875.19;;;13.44;81.96
11888;BME280;6003;42.756;23.130;2023-04-23T07:31:15;155816.84;;;13.21;78.54
11888;BME280;6003;42.756;23.130;2023-04-23T07:33:42;155844.69;;;13.32;78.57
11888;BME280;6003;42.756;23.130;2023-04-23T07:36:09;155742.69;;;12.93;79.07
11888;BME280;6003;42.756;23.130;2023-04-23T07:38:36;155843.34;;;13.31;81.21
11888;BME280;6003;42.756;23.130;2023-04-23T07:41:04;155985.13;;;13.86;82.78
11888;BME280;6003;42.756;23.130;2023-04-23T07:43:31;155930.81;;;13.65;78.01
11888;BME280;6003;42.756;23.130;2023-04-23T07:45:58;156019.59;;;13.99;78.35
11888;BME280;6003;42.756;23.130;2023-04-23T07:48:25;156101.78;;;14.31;78.68
11888;BME280;6003;42.756;23.130;2023-04-23T07:50:51;156237.06;;;14.83;77.66
11888;BME280;6003;42.756;23.130;2023-04-23T07:53:19;156237.06;;;14.83;74.86
11888;BME280;6003;42.756;23.130;2023-04-23T07:55:46;156258.28;;;14.92;75.22
11888;BME280;6003;42.756;23.130;2023-04-23T07:58:14;156385.63;;;15.41;76.81
11888;BME280;6003;42.756;23.130;2023-04-23T08:00:41;156469.25;;;15.73;72.37
11888;BME280;6003;42.756;23.130;2023-04-23T08:03:07;156304.69;;;15.09;73.86
11888;BME280;6003;42.756;23.130;2023-04-23T08:05:34;156300.75;;;15.08;71.55
11888;BME280;6003;42.756;23.130;2023-04-23T08:08:03;156296.75;;;15.06;73.88
11888;BME280;6003;42.756;23.130;2023-04-23T08:10:30;156319.28;;;15.15;70.97
11888;BME280;6003;42.756;23.130;2023-04-23T08:12:57;156290.09;;;15.04;70.92
11888;BME280;6003;42.756;23.130;2023-04-23T08:15:25;156347.16;;;15.26;72.82
11888;BME280;6003;42.756;23.130;2023-04-23T08:17:52;156385.63;;;15.41;72.78
11888;BME280;6003;42.756;23.130;2023-04-23T08:20:19;156282.16;;;15.01;71.73
11888;BME280;6003;42.756;23.130;2023-04-23T08:22:46;156254.28;;;14.90;72.32
11888;BME280;6003;42.756;23.130;2023-04-23T08:25:14;156160.16;;;14.54;72.76
11888;BME280;6003;42.756;23.130;2023-04-23T08:27:41;156084.56;;;14.25;74.92
11888;BME280;6003;42.756;23.130;2023-04-23T08:30:09;156202.56;;;14.70;75.18
11888;BME280;6003;42.756;23.130;2023-04-23T08:32:38;156298.06;;;15.07;77.32
11888;BME280;6003;42.756;23.130;2023-04-23T08:35:06;156388.25;;;15.42;73.28
11888;BME280;6003;42.756;23.130;2023-04-23T08:37:33;156341.84;;;15.24;72.76
11888;BME280;6003;42.756;23.130;2023-04-23T08:40:00;156274.19;;;14.98;73.07
11888;BME280;6003;42.756;23.130;2023-04-23T08:42:36;156316.66;;;15.14;76.19
11888;BME280;6003;42.756;23.130;2023-04-23T08:45:04;156483.84;;;15.78;74.96
11888;BME280;6003;42.756;23.130;2023-04-23T08:47:31;156444.00;;;15.63;68.63
11888;BME280;6003;42.756;23.130;2023-04-23T08:50:00;156438.69;;;15.61;71.88
11888;BME280;6003;42.756;23.130;2023-04-23T08:52:32;156482.53;;;15.78;70.99
11888;BME280;6003;42.756;23.130;2023-04-23T08:55:00;156493.13;;;15.82;68.99
11888;BME280;6003;42.756;23.130;2023-04-23T08:57:30;156606.00;;;16.26;72.24
11888;BME280;6003;42.756;23.130;2023-04-23T08:59:58;156680.28;;;16.54;67.83
11888;BME280;6003;42.756;23.130;2023-04-23T09:02:26;156643.13;;;16.40;68.12
11888;BME280;6003;42.756;23.130;2023-04-23T09:04:54;156629.88;;;16.35;69.03
11888;BME280;6003;42.756;23.130;2023-04-23T09:07:22;156635.16;;;16.37;68.01
11888;BME280;6003;42.756;23.130;2023-04-23T09:09:49;156677.66;;;16.53;65.94
11888;BME280;6003;42.756;23.130;2023-04-23T09:12:16;156760.03;;;16.85;66.71
11888;BME280;6003;42.756;23.130;2023-04-23T09:14:43;156855.69;;;17.22;63.51
11888;BME280;6003;42.756;23.130;2023-04-23T09:17:10;156701.53;;;16.62;65.57
11888;BME280;6003;42.756;23.130;2023-04-23T09:19:38;156732.09;;;16.74;65.00
11888;BME280;6003;42.756;23.130;2023-04-23T09:22:05;156774.66;;;16.90;66.38
11888;BME280;6003;42.756;23.130;2023-04-23T09:24:34;156783.94;;;16.94;67.11
11888;BME280;6003;42.756;23.130;2023-04-23T09:27:02;156807.88;;;17.03;63.36
11888;BME280;6003;42.756;23.130;2023-04-23T09:29:29;156857.00;;;17.22;65.94
11888;BME280;6003;42.756;23.130;2023-04-23T09:32:05;156892.88;;;17.36;64.68
11888;BME280;6003;42.756;23.130;2023-04-23T09:34:34;156765.34;;;16.87;65.40
11888;BME280;6003;42.756;23.130;2023-04-23T09:37:01;156772.00;;;16.89;63.22
11888;BME280;6003;42.756;23.130;2023-04-23T09:39:29;156685.63;;;16.56;60.20
11888;BME280;6003;42.756;23.130;2023-04-23T09:42:04;156726.81;;;16.72;61.32
11888;BME280;6003;42.756;23.130;2023-04-23T09:44:33;156803.88;;;17.02;61.32
11888;BME280;6003;42.756;23.130;2023-04-23T09:47:05;156769.31;;;16.88;63.52
11888;BME280;6003;42.756;23.130;2023-04-23T09:49:44;156730.75;;;16.74;60.83
11888;BME280;6003;42.756;23.130;2023-04-23T09:52:11;156698.91;;;16.61;64.39
11888;BME280;6003;42.756;23.130;2023-04-23T09:54:38;156770.69;;;16.89;66.36
11888;BME280;6003;42.756;23.130;2023-04-23T09:57:07;156835.75;;;17.14;66.63
11888;BME280;6003;42.756;23.130;2023-04-23T10:02:55;156969.94;;;17.66;62.68
11888;BME280;6003;42.756;23.130;2023-04-23T10:05:23;156867.66;;;17.26;61.53
11888;BME280;6003;42.756;23.130;2023-04-23T10:07:50;156888.88;;;17.34;62.73
11888;BME280;6003;42.756;23.130;2023-04-23T10:10:18;156746.75;;;16.80;60.44
11888;BME280;6003;42.756;23.130;2023-04-23T10:12:47;156845.06;;;17.18;60.21
11888;BME280;6003;42.756;23.130;2023-04-23T10:15:13;156855.69;;;17.22;59.73
11888;BME280;6003;42.756;23.130;2023-04-23T10:17:40;156818.47;;;17.07;58.55
11888;BME280;6003;42.756;23.130;2023-04-23T10:20:08;156728.13;;;16.73;57.93
11888;BME280;6003;42.756;23.130;2023-04-23T10:22:37;156772.00;;;16.89;57.86
11888;BME280;6003;42.756;23.130;2023-04-23T10:25:08;156766.69;;;16.87;60.28
11888;BME280;6003;42.756;23.130;2023-04-23T10:27:37;156834.41;;;17.13;58.71
11888;BME280;6003;42.756;23.130;2023-04-23T11:20:34;156981.91;;;17.70;53.07
11888;BME280;6003;42.756;23.130;2023-04-23T11:23:01;157017.84;;;17.84;49.96
11888;BME280;6003;42.756;23.130;2023-04-23T11:25:31;157057.72;;;17.99;49.00
11888;BME280;6003;42.756;23.130;2023-04-23T11:27:58;157076.28;;;18.07;46.69
11888;BME280;6003;42.756;23.130;2023-04-23T11:30:26;157140.13;;;18.31;51.37
11888;BME280;6003;42.756;23.130;2023-04-23T11:32:56;157234.56;;;18.67;47.12
11888;BME280;6003;42.756;23.130;2023-04-23T11:35:25;157180.00;;;18.46;46.30
11888;BME280;6003;42.756;23.130;2023-04-23T11:37:54;157209.25;;;18.58;49.40
11888;BME280;6003;42.756;23.130;2023-04-23T11:40:22;157207.94;;;18.57;47.56
11888;BME280;6003;42.756;23.130;2023-04-23T11:42:51;157213.25;;;18.59;46.71
11888;BME280;6003;42.756;23.130;2023-04-23T11:45:20;157140.13;;;18.31;44.18
11888;BME280;6003;42.756;23.130;2023-04-23T11:47:48;157067.00;;;18.03;46.47
11888;BME280;6003;42.756;23.130;2023-04-23T11:50:25;157036.44;;;17.91;44.52
11888;BME280;6003;42.756;23.130;2023-04-23T11:52:54;157015.16;;;17.83;45.91
11888;BME280;6003;42.756;23.130;2023-04-23T11:55:21;156959.31;;;17.62;43.59
11888;BME280;6003;42.756;23.130;2023-04-23T11:57:49;156961.97;;;17.63;45.82
11888;BME280;6003;42.756;23.130;2023-04-23T12:00:18;156910.13;;;17.43;42.61
11888;BME280;6003;42.756;23.130;2023-04-23T12:02:50;156926.06;;;17.49;44.61
11888;BME280;6003;42.756;23.130;2023-04-23T12:05:19;156965.97;;;17.64;44.77
11888;BME280;6003;42.756;23.130;2023-04-23T12:07:48;157009.88;;;17.81;42.66
11888;BME280;6003;42.756;23.130;2023-04-23T12:13:39;156993.84;;;17.75;41.47
11888;BME280;6003;42.756;23.130;2023-04-23T12:16:07;157005.88;;;17.79;44.40
11888;BME280;6003;42.756;23.130;2023-04-23T12:18:38;157016.47;;;17.84;44.61
11888;BME280;6003;42.756;23.130;2023-04-23T12:21:08;157019.16;;;17.85;41.50
11888;BME280;6003;42.756;23.130;2023-04-23T12:23:36;157039.06;;;17.92;41.72
11888;BME280;6003;42.756;23.130;2023-04-23T12:26:08;157094.94;;;18.14;42.53
11888;BME280;6003;42.756;23.130;2023-04-23T12:28:45;157102.91;;;18.17;38.00
11888;BME280;6003;42.756;23.130;2023-04-23T12:31:18;157168.06;;;18.42;39.88
11888;BME280;6003;42.756;23.130;2023-04-23T12:33:46;157210.56;;;18.58;37.33
11888;BME280;6003;42.756;23.130;2023-04-23T12:36:14;157251.88;;;18.74;37.48
11888;BME280;6003;42.756;23.130;2023-04-23T12:38:42;157323.66;;;19.02;40.49
11888;BME280;6003;42.756;23.130;2023-04-23T12:41:09;157395.50;;;19.29;40.44
11888;BME280;6003;42.756;23.130;2023-04-23T12:43:39;157454.06;;;19.52;39.88
11888;BME280;6003;42.756;23.130;2023-04-23T12:46:17;157478.00;;;19.61;40.94
11888;BME280;6003;42.756;23.130;2023-04-23T12:48:50;157464.69;;;19.56;36.42
11888;BME280;6003;42.756;23.130;2023-04-23T12:51:17;157483.34;;;19.63;38.49
11888;BME280;6003;42.756;23.130;2023-04-23T12:53:45;157472.69;;;19.59;40.38
11888;BME280;6003;42.756;23.130;2023-04-23T12:56:12;157438.09;;;19.46;38.87
11888;BME280;6003;42.756;23.130;2023-04-23T12:58:39;157398.16;;;19.30;36.43
11888;BME280;6003;42.756;23.130;2023-04-23T13:01:06;157390.19;;;19.27;38.93
11888;BME280;6003;42.756;23.130;2023-04-23T13:03:39;157430.13;;;19.43;42.41
11888;BME280;6003;42.756;23.130;2023-04-23T13:06:07;157494.03;;;19.67;42.83
11888;BME280;6003;42.756;23.130;2023-04-23T13:08:34;157484.66;;;19.64;35.42
11888;BME280;6003;42.756;23.130;2023-04-23T13:11:01;157472.69;;;19.59;37.49
11888;BME280;6003;42.756;23.130;2023-04-23T13:13:29;157467.38;;;19.57;34.91
11888;BME280;6003;42.756;23.130;2023-04-23T13:16:05;157456.72;;;19.53;34.33
11888;BME280;6003;42.756;23.130;2023-04-23T13:18:48;157456.72;;;19.53;36.64
11888;BME280;6003;42.756;23.130;2023-04-23T13:21:16;157503.31;;;19.71;40.04
11888;BME280;6003;42.756;23.130;2023-04-23T13:23:42;157496.72;;;19.68;35.18
11888;BME280;6003;42.756;23.130;2023-04-23T13:26:09;157563.22;;;19.94;40.20
11888;BME280;6003;42.756;23.130;2023-04-23T13:28:39;157612.50;;;20.13;37.30
11888;BME280;6003;42.756;23.130;2023-04-23T13:31:06;157608.53;;;20.11;37.08
11888;BME280;6003;42.756;23.130;2023-04-23T13:33:33;157552.59;;;19.90;32.34
11888;BME280;6003;42.756;23.130;2023-04-23T13:36:02;157529.97;;;19.81;36.32
11888;BME280;6003;42.756;23.130;2023-04-23T13:38:29;157460.72;;;19.54;36.11
11888;BME280;6003;42.756;23.130;2023-04-23T13:40:59;157404.81;;;19.33;34.76
11888;BME280;6003;42.756;23.130;2023-04-23T13:43:26;157273.16;;;18.82;36.43
11888;BME280;6003;42.756;23.130;2023-04-23T13:45:52;157225.19;;;18.64;43.12
11888;BME280;6003;42.756;23.130;2023-04-23T13:48:19;157057.72;;;17.99;45.03
11888;BME280;6003;42.756;23.130;2023-04-23T13:50:47;156977.91;;;17.69;44.30